createdAt,value
2018-11-22T12:17:45.363Z,22.13
2018-11-22T12:20:15.306Z,25.80
2018-11-22T12:22:45.779Z,24.60
2018-11-22T12:25:16.112Z,21.20
2018-11-22T12:27:46.287Z,23.13
2018-11-22T12:30:17.864Z,21.40
2018-11-22T12:32:48.196Z,24.03
2018-11-22T12:35:22.481Z,25.80
2018-11-22T12:37:56.898Z,21.90
2018-11-22T12:40:25.978Z,26.67
2018-11-22T12:42:55.052Z,25.60
2018-11-22T12:45:24.378Z,22.77
2018-11-22T12:47:53.376Z,24.87
2018-11-22T12:50:22.464Z,26.80
2018-11-22T12:52:51.897Z,28.53
2018-11-22T12:55:20.996Z,28.97
2018-11-22T12:57:50.276Z,26.90
2018-11-22T13:00:19.510Z,29.23
2018-11-22T13:02:48.644Z,26.57
2018-11-22T13:05:18.774Z,27.73
2018-11-22T13:07:47.804Z,28.83
2018-11-22T13:10:18.046Z,26.87
2018-11-22T13:12:48.134Z,22.70
2018-11-22T13:15:18.449Z,23.73
2018-11-22T13:17:47.536Z,26.00
2018-11-22T13:20:18.162Z,26.87
2018-11-22T13:22:47.186Z,27.07
2018-11-22T13:25:18.194Z,24.47
2018-11-22T13:27:47.245Z,30.30
2018-11-22T13:30:18.305Z,30.70
2018-11-22T13:32:48.524Z,30.33
2018-11-22T13:35:18.484Z,26.83
2018-11-22T13:37:48.973Z,27.40
2018-11-22T13:40:18.913Z,31.20
2018-11-22T13:42:48.942Z,30.73
2018-11-22T13:45:20.290Z,30.27
2018-11-22T13:47:50.509Z,29.17
2018-11-22T13:50:22.323Z,31.33
2018-11-22T13:52:52.902Z,30.83
2018-11-22T13:55:21.969Z,29.13
2018-11-22T13:57:51.056Z,39.63
2018-11-22T14:00:22.034Z,31.10
2018-11-22T14:02:55.818Z,29.17
2018-11-22T14:05:24.974Z,28.87
2018-11-22T14:07:54.297Z,34.37
2018-11-22T14:10:23.417Z,31.10
2018-11-22T14:12:52.635Z,34.03
2018-11-22T14:15:23.216Z,28.53
2018-11-22T14:17:53.718Z,29.20
2018-11-22T14:20:24.424Z,34.30
2018-11-22T14:22:53.603Z,30.73
2018-11-22T14:25:22.651Z,29.90
2018-11-22T14:27:51.974Z,29.00
2018-11-22T14:30:23.873Z,30.87
2018-11-22T14:32:53.220Z,32.73
2018-11-22T14:35:23.192Z,27.93
2018-11-22T14:37:52.271Z,28.20
2018-11-22T14:40:22.786Z,33.20
2018-11-22T14:42:52.609Z,34.77
2018-11-22T14:45:22.134Z,35.33
2018-11-22T14:47:52.144Z,38.70
2018-11-22T14:50:24.137Z,35.30
2018-11-22T14:52:55.913Z,32.77
2018-11-22T14:55:25.030Z,32.10
2018-11-22T14:57:54.042Z,33.47
2018-11-22T15:00:29.770Z,37.77
2018-11-22T15:02:58.946Z,35.73
2018-11-22T15:05:28.024Z,33.87
2018-11-22T15:07:57.106Z,37.10
2018-11-22T15:10:26.144Z,38.40
2018-11-22T15:12:55.193Z,37.40
2018-11-22T15:15:25.469Z,35.80
2018-11-22T15:17:54.457Z,34.83
2018-11-22T15:20:23.556Z,35.10
2018-11-22T15:22:53.535Z,36.97
2018-11-22T15:25:24.253Z,41.43
2018-11-22T15:27:53.295Z,33.97
2018-11-22T15:30:24.454Z,37.20
2018-11-22T15:32:53.610Z,39.47
2018-11-22T15:35:24.495Z,38.10
2018-11-22T15:37:53.915Z,35.60
2018-11-22T15:40:24.317Z,40.80
2018-11-22T15:42:54.932Z,39.83
2018-11-22T15:45:25.230Z,34.10
2018-11-22T15:47:54.410Z,36.30
2018-11-22T15:50:24.729Z,44.40
2018-11-22T15:52:53.817Z,43.60
2018-11-22T15:55:23.725Z,38.77
2018-11-22T15:57:54.468Z,38.73
2018-11-22T16:00:27.018Z,37.00
2018-11-22T16:02:57.108Z,37.37
2018-11-22T16:05:30.021Z,39.03
2018-11-22T16:07:59.317Z,39.17
2018-11-22T16:10:30.364Z,37.80
2018-11-22T16:13:01.151Z,41.57
2018-11-22T16:15:34.621Z,37.97
2018-11-22T16:18:03.817Z,36.07
2018-11-22T16:20:32.856Z,39.90
2018-11-22T16:23:01.907Z,36.57
2018-11-22T16:25:30.945Z,37.97
2018-11-22T16:28:00.218Z,36.23
2018-11-22T16:30:30.724Z,42.37
2018-11-22T16:32:59.776Z,37.03
2018-11-22T16:35:33.415Z,40.90
2018-11-22T16:37:58.775Z,42.93
2018-11-22T16:40:28.850Z,43.13
2018-11-22T16:42:59.584Z,46.00
2018-11-22T16:45:31.132Z,43.83
2018-11-22T16:48:01.567Z,44.67
2018-11-22T16:50:31.588Z,47.57
2018-11-22T16:53:00.619Z,46.70
2018-11-22T16:55:29.765Z,44.33
2018-11-22T16:58:00.167Z,44.90
2018-11-22T17:00:36.725Z,47.77
2018-11-22T17:03:08.819Z,40.50
2018-11-22T17:05:38.135Z,45.10
2018-11-22T17:08:08.231Z,46.57
2018-11-22T17:10:37.653Z,48.97
2018-11-22T17:13:07.166Z,40.63
2018-11-22T17:15:37.997Z,46.47
2018-11-22T17:18:08.305Z,48.07
2018-11-22T17:20:37.365Z,45.90
2018-11-22T17:23:07.151Z,42.63
2018-11-22T17:25:37.337Z,48.63
2018-11-22T17:28:07.700Z,47.43
2018-11-22T17:30:38.321Z,40.93
2018-11-22T17:33:07.413Z,41.77
2018-11-22T17:35:36.822Z,53.60
2018-11-22T17:38:07.349Z,43.50
2018-11-22T17:40:37.927Z,43.10
2018-11-22T17:43:07.378Z,49.37
2018-11-22T17:45:38.798Z,49.50
2018-11-22T17:48:08.430Z,50.60
2018-11-22T17:50:39.232Z,52.50
2018-11-22T17:53:08.995Z,48.53
2018-11-22T17:55:38.081Z,52.73
2018-11-22T17:58:07.567Z,52.97
2018-11-22T18:00:39.288Z,55.43
2018-11-22T18:03:08.953Z,53.53
2018-11-22T18:05:38.112Z,55.40
2018-11-22T18:08:07.388Z,51.77
2018-11-22T18:10:38.269Z,52.10
2018-11-22T18:13:07.374Z,52.00
2018-11-22T18:15:41.358Z,57.40
2018-11-22T18:18:10.458Z,53.93
2018-11-22T18:20:39.508Z,54.67
2018-11-22T18:23:11.410Z,52.10
2018-11-22T18:25:38.108Z,54.87
2018-11-22T18:28:07.138Z,53.93
2018-11-22T18:30:36.231Z,57.00
2018-11-22T18:33:06.549Z,51.60
2018-11-22T18:35:35.676Z,50.00
2018-11-22T18:38:05.200Z,51.43
2018-11-22T18:40:37.900Z,51.37
2018-11-22T18:43:06.943Z,50.23
2018-11-22T18:45:38.643Z,54.50
2018-11-22T18:48:08.956Z,53.50
2018-11-22T18:50:38.936Z,54.60
2018-11-22T18:53:08.269Z,54.40
2018-11-22T18:55:37.417Z,54.93
2018-11-22T18:58:07.272Z,54.53
2018-11-22T19:00:37.772Z,51.43
2018-11-22T19:03:09.025Z,51.67
2018-11-22T19:05:38.069Z,55.00
2018-11-22T19:08:07.245Z,53.50
2018-11-22T19:10:39.215Z,55.90
2018-11-22T19:13:09.702Z,59.80
2018-11-22T19:15:40.297Z,55.60
2018-11-22T19:18:10.212Z,57.90
2018-11-22T19:20:40.702Z,55.87
2018-11-22T19:23:10.741Z,63.77
2018-11-22T19:25:39.839Z,57.57
2018-11-22T19:28:09.630Z,61.40
2018-11-22T19:30:40.447Z,70.20
2018-11-22T19:33:11.072Z,60.17
2018-11-22T19:35:42.674Z,55.93
2018-11-22T19:38:11.848Z,55.37
2018-11-22T19:40:41.673Z,53.93
2018-11-22T19:43:11.483Z,53.20
2018-11-22T19:45:42.036Z,54.93
2018-11-22T19:48:11.220Z,58.20
2018-11-22T19:50:40.392Z,60.97
2018-11-22T19:53:11.248Z,57.50
2018-11-22T19:55:40.796Z,62.17
2018-11-22T19:58:11.658Z,59.53
2018-11-22T20:00:40.995Z,55.13
2018-11-22T20:03:10.360Z,58.47
2018-11-22T20:05:40.773Z,61.17
2018-11-22T20:08:12.302Z,60.13
2018-11-22T20:10:43.937Z,52.93
2018-11-22T20:13:13.066Z,58.03
2018-11-22T20:15:42.110Z,54.17
2018-11-22T20:18:11.725Z,55.23
2018-11-22T20:20:41.099Z,59.17
2018-11-22T20:23:10.163Z,58.10
2018-11-22T20:25:39.356Z,54.87
2018-11-22T20:28:08.510Z,56.23
2018-11-22T20:30:39.190Z,58.87
2018-11-22T20:33:08.260Z,53.80
2018-11-22T20:35:37.637Z,56.10
2018-11-22T20:38:06.820Z,55.87
2018-11-22T20:40:35.916Z,55.87
2018-11-22T20:43:05.498Z,53.07
2018-11-22T20:45:40.676Z,59.90
2018-11-22T20:48:05.902Z,58.10
2018-11-22T20:50:35.469Z,57.70
2018-11-22T20:53:04.549Z,60.07
2018-11-22T20:55:37.113Z,61.07
2018-11-22T20:58:07.776Z,62.13
2018-11-22T21:00:41.193Z,69.87
2018-11-22T21:03:10.229Z,64.97
2018-11-22T21:05:39.259Z,59.87
2018-11-22T21:08:08.278Z,65.97
2018-11-22T21:10:37.312Z,60.07
2018-11-22T21:13:06.395Z,63.87
2018-11-22T21:15:36.064Z,65.23
2018-11-22T21:18:06.512Z,67.57
2018-11-22T21:20:36.988Z,66.90
2018-11-22T21:23:06.169Z,64.83
2018-11-22T21:25:35.216Z,69.40
2018-11-22T21:28:04.298Z,65.90
2018-11-22T21:30:34.753Z,66.53
2018-11-22T21:33:04.149Z,64.17
2018-11-22T21:35:33.660Z,59.77
2018-11-22T21:38:03.444Z,60.67
2018-11-22T21:40:33.236Z,63.50
2018-11-22T21:43:02.250Z,70.03
2018-11-22T21:45:32.110Z,62.47
2018-11-22T21:48:01.190Z,72.73
2018-11-22T21:50:30.340Z,67.57
2018-11-22T21:52:59.828Z,68.77
2018-11-22T21:55:29.620Z,62.83
2018-11-22T21:58:00.221Z,65.63
2018-11-22T22:00:33.417Z,67.97
2018-11-22T22:03:04.331Z,64.77
2018-11-22T22:05:33.669Z,61.17
2018-11-22T22:08:02.843Z,66.73
2018-11-22T22:10:31.909Z,65.10
2018-11-22T22:13:01.018Z,67.53
2018-11-22T22:15:31.278Z,64.53
2018-11-22T22:18:00.372Z,66.07
2018-11-22T22:20:31.294Z,65.63
2018-11-22T22:23:07.166Z,63.93
2018-11-22T22:25:35.948Z,63.10
2018-11-22T22:28:05.076Z,61.03
2018-11-22T22:30:34.811Z,60.43
2018-11-22T22:33:05.476Z,61.20
2018-11-22T22:35:34.537Z,63.30
2018-11-22T22:38:03.531Z,64.33
2018-11-22T22:40:33.485Z,62.20
2018-11-22T22:43:02.566Z,60.67
2018-11-22T22:45:32.385Z,65.03
2018-11-22T22:48:01.436Z,61.80
2018-11-22T22:50:31.192Z,67.83
2018-11-22T22:53:01.112Z,61.60
2018-11-22T22:55:30.784Z,65.07
2018-11-22T22:57:59.794Z,68.50
2018-11-22T23:00:36.427Z,60.80
2018-11-22T23:03:06.890Z,58.63
2018-11-22T23:05:36.523Z,63.47
2018-11-22T23:08:05.620Z,66.07
2018-11-22T23:10:34.642Z,60.43
2018-11-22T23:13:04.115Z,57.43
2018-11-22T23:15:33.238Z,65.47
2018-11-22T23:18:02.610Z,64.53
2018-11-22T23:20:34.094Z,65.67
2018-11-22T23:23:03.272Z,62.73
2018-11-22T23:25:32.305Z,65.70
2018-11-22T23:28:01.449Z,70.07
2018-11-22T23:30:32.044Z,66.00
2018-11-22T23:33:02.530Z,66.17
2018-11-22T23:35:31.572Z,63.47
2018-11-22T23:38:00.595Z,71.23
2018-11-22T23:40:30.686Z,72.87
2018-11-22T23:42:59.724Z,70.30
2018-11-22T23:45:30.042Z,65.53
2018-11-22T23:47:59.216Z,74.83
2018-11-22T23:50:29.741Z,67.23
2018-11-22T23:52:59.773Z,71.87
2018-11-22T23:55:28.861Z,69.23
2018-11-22T23:57:57.913Z,71.23
